Time;durP1;ratioP1;P1;durP2;ratioP2;P2;SDS_P1;SDS_P2;PMS_P1;PMS_P2;Temp;Humidity;BMP_temperature;BMP_pressure;BME280_temperature;BME280_humidity;BME280_pressure;Samples;Min_cycle;Max_cycle;Signal;HPM_P1;HPM_P2
2023/05/03 00:02:01;;;;;;;;;;;;;;;12.22;54.62;100308.81;5095041;28;20021;-81
2023/05/03 00:04:26;;;;;;;;;;;;;;;11.96;54.52;100309.13;5112672;28;19972;-81
2023/05/03 00:06:51;;;;;;;;;;;;;;;12.03;55.12;100313.44;5094769;28;19916;-82
2023/05/03 00:09:17;;;;;;;;;;;;;;;12.02;54.68;100309.06;5113108;28;20002;-82
2023/05/03 00:11:42;;;;;;;;;;;;;;;12.35;54.33;100305.09;5113396;28;19950;-82
2023/05/03 00:14:07;;;;;;;;;;;;;;;12.32;54.62;100304.28;5112890;28;20459;-81
2023/05/03 00:16:32;;;;;;;;;;;;;;;12.38;54.19;100298.91;5113572;28;19923;-82
2023/05/03 00:18:58;;;;;;;;;;;;;;;12.54;53.72;100295.19;5113032;28;19911;-82
2023/05/03 00:21:23;;;;;;;;;;;;;;;12.77;53.75;100306.34;5112470;28;20289;-82
2023/05/03 00:23:48;;;;;;;;;;;;;;;12.77;54.71;100296.63;5113366;28;19912;-82
2023/05/03 00:26:14;;;;;;;;;;;;;;;12.94;54.54;100306.94;5112391;28;20000;-83
2023/05/03 00:28:40;;;;;;;;;;;;;;;12.93;53.09;100306.97;5112873;28;20022;-82
2023/05/03 00:31:06;;;;;;;;;;;;;;;13.00;53.74;100300.69;5113145;28;20429;-82
2023/05/03 00:33:31;;;;;;;;;;;;;;;13.00;54.32;100308.66;5112902;28;19918;-82
2023/05/03 00:35:56;;;;;;;;;;;;;;;13.13;54.69;100310.22;5112379;28;20006;-82
2023/05/03 00:38:22;;;;;;;;;;;;;;;13.04;54.77;100302.41;5112458;28;20392;-82
2023/05/03 00:40:52;;;;;;;;;;;;;;;12.96;55.42;100289.28;5112769;28;19915;-82
2023/05/03 00:43:17;;;;;;;;;;;;;;;13.21;54.70;100302.16;5093933;28;19923;-85
2023/05/03 00:45:45;;;;;;;;;;;;;;;13.17;55.50;100290.72;5112265;28;19965;-83
2023/05/03 00:48:11;;;;;;;;;;;;;;;13.04;56.18;100297.13;5111961;28;19912;-82
2023/05/03 00:50:37;;;;;;;;;;;;;;;12.99;56.93;100299.84;5111960;28;20305;-82
2023/05/03 00:53:02;;;;;;;;;;;;;;;13.07;56.56;100302.38;5112160;28;19911;-83
2023/05/03 00:55:29;;;;;;;;;;;;;;;13.02;56.45;100293.59;5112537;28;20331;-83
2023/05/03 00:57:54;;;;;;;;;;;;;;;13.14;56.46;100292.53;5112162;28;19912;-82
2023/05/03 01:00:21;;;;;;;;;;;;;;;13.18;55.28;100300.41;5111805;28;19922;-83
2023/05/03 01:02:46;;;;;;;;;;;;;;;12.89;56.70;100303.50;5112000;28;19911;-82
2023/05/03 01:05:12;;;;;;;;;;;;;;;12.97;56.27;100296.31;5111698;28;19922;-82
2023/05/03 01:07:46;;;;;;;;;;;;;;;12.97;55.53;100296.31;5112040;28;19963;-82
2023/05/03 01:10:17;;;;;;;;;;;;;;;12.88;55.49;100292.06;5112223;28;19912;-82
2023/05/03 01:12:51;;;;;;;;;;;;;;;12.92;55.68;100292.88;5093517;28;20354;-83
2023/05/03 01:15:17;;;;;;;;;;;;;;;12.83;56.22;100293.00;5111826;28;19920;-83
2023/05/03 01:17:47;;;;;;;;;;;;;;;12.82;56.14;100292.16;5111397;28;19922;-82
2023/05/03 01:20:13;;;;;;;;;;;;;;;12.72;56.39;100303.75;5112422;28;20301;-83
2023/05/03 01:22:48;;;;;;;;;;;;;;;12.70;56.83;100298.47;5093429;28;19911;-82
2023/05/03 01:25:15;;;;;;;;;;;;;;;12.52;57.17;100299.59;5111482;28;19919;-82
2023/05/03 01:27:40;;;;;;;;;;;;;;;12.53;57.31;100289.91;5112194;28;19942;-83
2023/05/03 01:30:07;;;;;;;;;;;;;;;12.51;57.01;100289.03;5111421;28;19916;-82
2023/05/03 01:32:51;;;;;;;;;;;;;;;12.38;56.74;100287.47;5093430;28;20286;-82
2023/05/03 01:35:29;;;;;;;;;;;;;;;12.22;57.16;100279.72;5111698;28;19920;-82
2023/05/03 01:37:55;;;;;;;;;;;;;;;11.80;58.99;100284.56;5111373;28;20030;-82
2023/05/03 01:40:21;;;;;;;;;;;;;;;11.65;59.05;100278.56;5111398;28;19926;-82
2023/05/03 01:42:47;;;;;;;;;;;;;;;11.64;59.72;100282.06;5111109;28;19916;-83
2023/05/03 01:45:12;;;;;;;;;;;;;;;11.39;60.03;100262.09;5111352;28;20006;-82
2023/05/03 01:47:38;;;;;;;;;;;;;;;11.30;60.70;100284.16;5111537;28;19916;-82
2023/05/03 01:50:03;;;;;;;;;;;;;;;11.29;61.12;100277.13;5110911;28;19915;-82
2023/05/03 01:52:29;;;;;;;;;;;;;;;11.33;60.87;100278.00;5110946;28;19916;-83
2023/05/03 01:54:55;;;;;;;;;;;;;;;11.17;60.21;100277.22;5111744;28;19907;-82
2023/05/03 01:57:21;;;;;;;;;;;;;;;11.22;59.94;100265.75;5111368;28;19919;-82
2023/05/03 01:59:46;;;;;;;;;;;;;;;11.18;59.58;100255.22;5111416;28;19911;-81
2023/05/03 02:02:11;;;;;;;;;;;;;;;11.31;59.87;100259.50;5110862;28;19916;-81
2023/05/03 02:04:36;;;;;;;;;;;;;;;11.04;60.27;100260.63;5110594;28;20385;-82
2023/05/03 02:07:02;;;;;;;;;;;;;;;11.07;60.57;100265.88;5110786;28;20317;-81
2023/05/03 02:09:27;;;;;;;;;;;;;;;11.02;60.77;100263.25;5111141;28;20313;-81
2023/05/03 02:11:52;;;;;;;;;;;;;;;11.02;60.36;100267.69;5110345;28;20381;-81
2023/05/03 02:14:18;;;;;;;;;;;;;;;11.03;60.75;100279.97;5111219;28;19922;-82
2023/05/03 02:16:43;;;;;;;;;;;;;;;10.93;60.77;100272.13;5092288;28;19932;-81
2023/05/03 02:19:09;;;;;;;;;;;;;;;10.96;60.64;100270.38;5110989;28;19912;-81
2023/05/03 02:21:35;;;;;;;;;;;;;;;10.80;61.02;100254.63;5110561;28;20282;-81
2023/05/03 02:24:00;;;;;;;;;;;;;;;10.78;61.30;100253.75;5110354;28;19981;-81
2023/05/03 02:26:26;;;;;;;;;;;;;;;10.79;60.98;100266.06;5110226;28;19958;-81
2023/05/03 02:28:51;;;;;;;;;;;;;;;10.97;60.46;100266.81;5111526;28;19912;-81
2023/05/03 02:31:16;;;;;;;;;;;;;;;11.05;60.10;100267.66;5111040;28;19965;-81
2023/05/03 02:33:42;;;;;;;;;;;;;;;11.12;60.06;100261.41;5109885;28;20417;-81
2023/05/03 02:36:07;;;;;;;;;;;;;;;11.13;59.94;100272.88;5110443;28;19919;-82
2023/05/03 02:38:33;;;;;;;;;;;;;;;11.26;60.28;100274.50;5110467;28;20382;-82
2023/05/03 02:40:58;;;;;;;;;;;;;;;11.19;59.85;100273.69;5110508;28;19912;-82
2023/05/03 02:43:24;;;;;;;;;;;;;;;11.31;59.46;100269.19;5110648;28;19968;-82
2023/05/03 02:45:49;;;;;;;;;;;;;;;11.37;58.83;100261.19;5110436;28;19938;-81
2023/05/03 02:48:15;;;;;;;;;;;;;;;11.13;59.40;100270.22;5110534;28;19967;-81
2023/05/03 02:50:40;;;;;;;;;;;;;;;11.06;60.42;100279.94;5110601;28;19916;-82
2023/05/03 02:53:06;;;;;;;;;;;;;;;11.10;60.46;100286.97;5110485;28;19911;-82
2023/05/03 02:55:31;;;;;;;;;;;;;;;11.31;60.18;100292.94;5109594;28;20002;-82
2023/05/03 02:57:56;;;;;;;;;;;;;;;11.46;60.42;100300.75;5092632;28;19923;-84
2023/05/03 03:00:22;;;;;;;;;;;;;;;11.20;61.10;100296.59;5090032;28;20005;-81
2023/05/03 03:02:47;;;;;;;;;;;;;;;11.13;61.05;100294.88;5090326;28;19912;-82
2023/05/03 03:05:13;;;;;;;;;;;;;;;11.03;61.29;100299.34;5090131;28;19919;-82
2023/05/03 03:07:39;;;;;;;;;;;;;;;11.02;61.62;100307.28;5108329;28;19972;-82
2023/05/03 03:10:05;;;;;;;;;;;;;;;11.07;61.96;100308.09;5110136;28;19961;-83
2023/05/03 03:12:30;;;;;;;;;;;;;;;10.95;62.12;100308.19;5112989;28;19911;-84
2023/05/03 03:14:55;;;;;;;;;;;;;;;11.08;61.87;100307.22;5112869;28;20361;-82
2023/05/03 03:17:21;;;;;;;;;;;;;;;11.01;62.21;100309.03;5113358;28;21233;-83
2023/05/03 03:19:46;;;;;;;;;;;;;;;11.09;62.11;100315.16;5113437;28;20401;-83
2023/05/03 03:22:12;;;;;;;;;;;;;;;11.21;61.46;100308.88;5112912;28;19972;-83
2023/05/03 03:24:37;;;;;;;;;;;;;;;11.05;61.74;100316.03;5112035;28;19926;-84
2023/05/03 03:27:02;;;;;;;;;;;;;;;11.24;62.05;100319.41;5112682;28;19919;-86
2023/05/03 03:29:31;;;;;;;;;;;;;;;11.21;62.37;100313.28;5113060;28;20032;-87
2023/05/03 03:31:56;;;;;;;;;;;;;;;11.33;61.89;100323.75;5095437;28;19922;-85
2023/05/03 03:34:22;;;;;;;;;;;;;;;11.28;62.13;100321.16;5114420;28;20308;-86
2023/05/03 03:36:47;;;;;;;;;;;;;;;11.07;63.42;100329.22;5095425;28;20385;-84
2023/05/03 03:39:12;;;;;;;;;;;;;;;10.83;65.03;100317.97;5113290;28;19921;-84
2023/05/03 03:41:38;;;;;;;;;;;;;;;10.75;65.54;100325.91;5095312;28;19919;-84
2023/05/03 03:44:03;;;;;;;;;;;;;;;10.78;66.35;100335.56;5095778;28;20426;-84
2023/05/03 03:46:29;;;;;;;;;;;;;;;10.68;66.91;100342.66;5114202;28;19919;-84
2023/05/03 03:48:54;;;;;;;;;;;;;;;10.55;67.77;100352.41;5113506;28;19958;-85
2023/05/03 03:51:19;;;;;;;;;;;;;;;10.72;68.90;100359.34;5113351;28;19958;-86
2023/05/03 03:53:45;;;;;;;;;;;;;;;10.57;68.94;100366.44;5112856;28;19915;-84
2023/05/03 03:56:10;;;;;;;;;;;;;;;10.51;69.31;100363.84;5094522;28;19922;-83
2023/05/03 03:58:35;;;;;;;;;;;;;;;10.54;69.77;100349.78;5113713;28;20346;-84
2023/05/03 04:01:01;;;;;;;;;;;;;;;10.71;69.56;100337.38;5094742;28;19969;-85
2023/05/03 04:03:26;;;;;;;;;;;;;;;10.80;69.57;100349.66;5094844;28;19959;-84
2023/05/03 04:05:51;;;;;;;;;;;;;;;10.77;69.69;100361.97;5108668;28;19915;-83
2023/05/03 04:08:17;;;;;;;;;;;;;;;11.03;69.61;100340.69;5108489;28;19919;-84
2023/05/03 04:10:43;;;;;;;;;;;;;;;11.09;68.55;100351.22;5110092;28;20371;-85
2023/05/03 04:13:08;;;;;;;;;;;;;;;11.31;68.54;100356.34;5111924;28;19920;-84
2023/05/03 04:15:34;;;;;;;;;;;;;;;11.13;69.07;100367.94;5113023;28;19994;-85
2023/05/03 04:17:59;;;;;;;;;;;;;;;11.08;69.05;100367.97;5113062;28;20393;-84
2023/05/03 04:20:24;;;;;;;;;;;;;;;11.51;68.73;100370.28;5107707;28;19923;-84
2023/05/03 04:22:50;;;;;;;;;;;;;;;11.67;68.32;100380.72;5110028;28;19942;-85
2023/05/03 04:25:18;;;;;;;;;;;;;;;11.71;68.62;100393.91;5093854;28;19915;-85
2023/05/03 04:27:43;;;;;;;;;;;;;;;11.83;68.49;100401.72;5112721;28;19908;-83
2023/05/03 04:30:10;;;;;;;;;;;;;;;11.73;69.81;100409.75;5086347;28;19923;-83
2023/05/03 04:32:36;;;;;;;;;;;;;;;11.87;70.35;100431.66;5092646;28;20014;-84
2023/05/03 04:35:08;;;;;;;;;;;;;;;11.95;70.91;100453.63;5112522;28;20056;-83
2023/05/03 04:37:34;;;;;;;;;;;;;;;12.02;71.08;100461.50;5110736;28;19931;-86
2023/05/03 04:39:59;;;;;;;;;;;;;;;11.77;72.56;100461.69;5103483;28;20002;-86
2023/05/03 04:42:25;;;;;;;;;;;;;;;11.83;72.69;100457.25;5111560;28;20015;-85
2023/05/03 04:44:51;;;;;;;;;;;;;;;11.91;72.35;100470.41;5111852;28;19973;-85
2023/05/03 04:47:16;;;;;;;;;;;;;;;11.92;72.62;100473.91;5112101;28;20351;-85
2023/05/03 04:49:42;;;;;;;;;;;;;;;12.00;71.98;100470.34;5112337;28;19908;-85
2023/05/03 04:52:09;;;;;;;;;;;;;;;11.89;71.52;100471.28;5111334;28;20009;-84
2023/05/03 04:54:34;;;;;;;;;;;;;;;11.65;73.05;100465.31;5111562;28;19912;-85
2023/05/03 04:57:00;;;;;;;;;;;;;;;11.64;72.92;100464.41;5101853;28;19965;-85
2023/05/03 04:59:25;;;;;;;;;;;;;;;11.49;73.96;100471.59;5091494;28;20005;-84
2023/05/03 05:01:50;;;;;;;;;;;;;;;11.59;74.03;100474.16;5093643;28;19923;-85
2023/05/03 05:04:16;;;;;;;;;;;;;;;11.76;73.68;100481.97;5085325;28;19916;-88
2023/05/03 05:06:41;;;;;;;;;;;;;;;11.91;73.73;100486.28;5086445;28;19916;-86
2023/05/03 05:09:18;;;;;;;;;;;;;;;11.88;75.18;100493.31;5101101;28;19915;-86
2023/05/03 05:11:44;;;;;;;;;;;;;;;11.76;75.89;100499.59;5100258;28;19935;-85
2023/05/03 05:14:09;;;;;;;;;;;;;;;12.02;75.68;100502.06;5110201;28;19918;-84
2023/05/03 05:16:34;;;;;;;;;;;;;;;12.08;74.97;100501.13;5094691;28;20291;-86
2023/05/03 05:19:00;;;;;;;;;;;;;;;11.93;75.86;100507.44;5106168;28;19915;-84
2023/05/03 05:21:25;;;;;;;;;;;;;;;11.99;75.68;100502.09;5075864;28;20351;-86
2023/05/03 05:23:51;;;;;;;;;;;;;;;12.01;75.66;100508.25;5072471;28;19912;-85
2023/05/03 05:26:16;;;;;;;;;;;;;;;12.02;75.76;100514.41;5092372;28;19930;-85
2023/05/03 05:28:41;;;;;;;;;;;;;;;11.87;76.56;100510.97;5110348;28;19938;-84
2023/05/03 05:31:07;;;;;;;;;;;;;;;12.00;76.16;100503.84;5086050;28;19924;-84
2023/05/03 05:33:32;;;;;;;;;;;;;;;12.13;76.32;100502.00;5070411;28;20470;-84
2023/05/03 05:35:58;;;;;;;;;;;;;;;12.26;76.03;100505.41;5068870;28;20015;-85
2023/05/03 05:38:23;;;;;;;;;;;;;;;12.49;74.38;100499.88;5052307;28;19935;-86
2023/05/03 05:40:48;;;;;;;;;;;;;;;12.36;74.82;100497.34;5052205;28;20293;-85
2023/05/03 05:43:14;;;;;;;;;;;;;;;12.37;74.73;100492.94;5070665;28;19912;-86
2023/05/03 05:45:39;;;;;;;;;;;;;;;12.62;74.88;100485.66;5052204;28;19942;-86
2023/05/03 05:48:05;;;;;;;;;;;;;;;12.71;75.22;100484.66;5078720;28;19949;-85
2023/05/03 05:50:30;;;;;;;;;;;;;;;12.87;74.20;100475.63;5092921;28;19955;-88
2023/05/03 05:52:55;;;;;;;;;;;;;;;13.01;73.12;100474.59;5101633;28;20430;-86
2023/05/03 05:55:21;;;;;;;;;;;;;;;12.76;71.97;100468.72;5083113;28;19915;-85
2023/05/03 05:57:46;;;;;;;;;;;;;;;12.70;73.20;100473.19;5095590;28;19911;-85
2023/05/03 06:00:16;;;;;;;;;;;;;;;13.00;72.93;100465.75;5078625;28;19919;-84
2023/05/03 06:02:41;;;;;;;;;;;;;;;13.07;73.17;100474.53;5077872;28;19912;-84
2023/05/03 06:05:07;;;;;;;;;;;;;;;13.22;73.38;100462.81;5069543;28;19992;-88
2023/05/03 06:07:32;;;;;;;;;;;;;;;13.46;72.28;100461.66;5078862;28;19959;-84
2023/05/03 06:09:57;;;;;;;;;;;;;;;13.48;70.47;100461.63;5089337;28;20286;-84
2023/05/03 06:12:23;;;;;;;;;;;;;;;13.35;70.67;100460.94;5090106;28;19916;-84
2023/05/03 06:14:48;;;;;;;;;;;;;;;13.10;71.17;100470.94;5089091;28;19912;-85
2023/05/03 06:17:13;;;;;;;;;;;;;;;13.12;70.67;100469.16;5090408;28;19968;-85
2023/05/03 06:19:39;;;;;;;;;;;;;;;13.01;71.71;100467.53;5089932;28;19999;-85
2023/05/03 06:22:04;;;;;;;;;;;;;;;13.43;72.29;100472.31;5090217;28;19925;-85
2023/05/03 06:24:31;;;;;;;;;;;;;;;13.51;72.47;100474.84;5090150;28;19916;-85
2023/05/03 06:26:57;;;;;;;;;;;;;;;13.56;73.82;100467.69;5088604;28;19916;-85
2023/05/03 06:29:23;;;;;;;;;;;;;;;13.69;73.09;100471.91;5090176;28;19919;-84
2023/05/03 06:31:48;;;;;;;;;;;;;;;13.79;72.89;100462.03;5092341;28;19966;-84
2023/05/03 06:34:15;;;;;;;;;;;;;;;13.82;71.65;100466.41;5110223;28;19965;-84
2023/05/03 06:36:40;;;;;;;;;;;;;;;14.02;71.56;100461.66;5110677;28;19912;-84
2023/05/03 06:39:08;;;;;;;;;;;;;;;14.02;71.03;100459.00;5109415;28;19922;-84
2023/05/03 06:41:33;;;;;;;;;;;;;;;14.07;70.60;100454.50;5109851;28;20373;-83
2023/05/03 06:43:58;;;;;;;;;;;;;;;13.94;71.68;100448.50;5109279;28;19918;-83
2023/05/03 06:46:26;;;;;;;;;;;;;;;13.68;72.33;100434.81;5110194;28;19918;-82
2023/05/03 06:48:55;;;;;;;;;;;;;;;13.83;71.76;100428.41;5113850;28;19998;-83
2023/05/03 06:51:26;;;;;;;;;;;;;;;14.10;70.96;100440.28;5114366;28;19911;-83
2023/05/03 06:53:51;;;;;;;;;;;;;;;14.54;69.97;100440.41;5114404;28;19980;-84
2023/05/03 06:56:16;;;;;;;;;;;;;;;14.68;69.66;100433.91;5114206;28;19915;-84
2023/05/03 06:58:42;;;;;;;;;;;;;;;14.98;69.23;100435.97;5114732;28;19961;-84
2023/05/03 07:01:07;;;;;;;;;;;;;;;14.87;67.75;100425.56;5113079;28;19923;-83
2023/05/03 07:03:32;;;;;;;;;;;;;;;14.81;67.37;100426.59;5113361;28;19912;-83
2023/05/03 07:05:58;;;;;;;;;;;;;;;14.82;68.54;100422.16;5113504;28;19915;-84
2023/05/03 07:08:23;;;;;;;;;;;;;;;15.16;67.95;100419.63;5113611;28;19919;-83
2023/05/03 07:10:49;;;;;;;;;;;;;;;15.33;66.92;100421.91;5113491;28;20060;-84
2023/05/03 07:13:14;;;;;;;;;;;;;;;15.27;67.90;100431.81;5112387;28;20006;-84
2023/05/03 07:15:39;;;;;;;;;;;;;;;15.40;67.89;100434.16;5113713;28;19919;-83
2023/05/03 07:18:05;;;;;;;;;;;;;;;15.53;65.30;100437.38;5094285;28;20403;-84
2023/05/03 07:20:30;;;;;;;;;;;;;;;15.24;65.40;100439.84;5113319;28;19923;-85
2023/05/03 07:22:56;;;;;;;;;;;;;;;15.28;65.51;100441.53;5113553;28;19911;-83
2023/05/03 07:25:21;;;;;;;;;;;;;;;15.34;66.32;100436.09;5113389;28;19912;-84
2023/05/03 07:27:47;;;;;;;;;;;;;;;15.67;66.84;100450.34;5112965;28;20281;-83
2023/05/03 07:30:12;;;;;;;;;;;;;;;15.69;64.15;100445.88;5094517;28;19911;-83
2023/05/03 07:32:37;;;;;;;;;;;;;;;15.48;66.11;100435.75;5112874;28;19919;-83
2023/05/03 07:35:03;;;;;;;;;;;;;;;15.48;65.25;100436.63;5113139;28;19912;-83
2023/05/03 07:37:29;;;;;;;;;;;;;;;15.46;63.85;100441.13;5113236;28;19922;-84
2023/05/03 07:39:54;;;;;;;;;;;;;;;15.84;64.37;100434.00;5113087;28;19969;-83
2023/05/03 07:42:19;;;;;;;;;;;;;;;16.25;64.68;100429.41;5112327;28;19934;-84
2023/05/03 07:44:45;;;;;;;;;;;;;;;16.59;64.08;100422.28;5112979;28;19970;-84
2023/05/03 07:47:10;;;;;;;;;;;;;;;16.79;59.81;100427.03;5113076;28;19907;-83
2023/05/03 07:49:38;;;;;;;;;;;;;;;17.02;60.39;100428.19;5113571;28;19915;-85
2023/05/03 07:52:04;;;;;;;;;;;;;;;17.17;58.14;100425.91;5095286;28;20332;-83
2023/05/03 07:54:29;;;;;;;;;;;;;;;17.06;57.31;100421.84;5113236;28;19975;-84
2023/05/03 07:56:55;;;;;;;;;;;;;;;16.95;57.55;100415.03;5113366;28;19907;-84
2023/05/03 07:59:20;;;;;;;;;;;;;;;17.24;56.75;100402.63;5112373;28;19912;-85
2023/05/03 08:01:45;;;;;;;;;;;;;;;16.77;57.09;100405.75;5112744;28;19915;-85
2023/05/03 08:04:11;;;;;;;;;;;;;;;16.76;55.10;100403.13;5112982;28;19912;-85
2023/05/03 08:06:37;;;;;;;;;;;;;;;16.61;57.09;100413.34;5113294;28;19917;-85
2023/05/03 08:09:03;;;;;;;;;;;;;;;16.91;57.00;100412.53;5113252;28;19911;-86
2023/05/03 08:11:29;;;;;;;;;;;;;;;17.46;56.43;100408.16;5094687;28;20343;-85
2023/05/03 08:13:54;;;;;;;;;;;;;;;17.47;56.49;100403.66;5113245;28;19912;-86
2023/05/03 08:16:20;;;;;;;;;;;;;;;17.14;57.20;100393.16;5112992;28;19955;-86
2023/05/03 08:18:45;;;;;;;;;;;;;;;17.61;55.69;100388.13;5113336;28;19935;-85
2023/05/03 08:21:12;;;;;;;;;;;;;;;17.65;54.70;100397.72;5112552;28;19957;-87
2023/05/03 08:23:37;;;;;;;;;;;;;;;17.60;55.60;100393.50;5112814;28;19912;-86
2023/05/03 08:26:03;;;;;;;;;;;;;;;17.81;55.20;100399.91;5113419;28;20030;-85
2023/05/03 08:28:29;;;;;;;;;;;;;;;18.08;54.73;100403.47;5112802;28;19907;-85
2023/05/03 08:30:55;;;;;;;;;;;;;;;18.17;53.04;100404.94;5090875;28;20389;-85
2023/05/03 08:33:21;;;;;;;;;;;;;;;18.24;52.54;100406.44;5092049;28;19923;-85
2023/05/03 08:35:46;;;;;;;;;;;;;;;18.56;52.65;100391.94;5092756;28;19912;-85
2023/05/03 08:38:12;;;;;;;;;;;;;;;18.02;53.26;100376.97;5091481;28;19955;-86
2023/05/03 08:40:39;;;;;;;;;;;;;;;17.96;54.70;100387.88;5090646;28;20388;-88
2023/05/03 08:43:11;;;;;;;;;;;;;;;17.72;52.24;100385.94;5090863;28;19916;-87
2023/05/03 08:45:36;;;;;;;;;;;;;;;18.10;53.35;100385.56;5091642;28;19912;-86
2023/05/03 08:48:03;;;;;;;;;;;;;;;18.33;53.69;100375.88;5091275;28;20389;-86
2023/05/03 08:50:29;;;;;;;;;;;;;;;18.36;52.55;100375.78;5091499;28;19916;-88
2023/05/03 08:52:54;;;;;;;;;;;;;;;18.53;53.38;100367.13;5091316;28;20262;-86
2023/05/03 08:55:20;;;;;;;;;;;;;;;18.47;50.35;100360.22;5091506;28;20007;-85
2023/05/03 08:57:45;;;;;;;;;;;;;;;18.43;51.05;100356.78;5091381;28;19962;-86
2023/05/03 09:00:11;;;;;;;;;;;;;;;18.61;51.08;100357.03;5091062;28;19916;-85
2023/05/03 09:02:40;;;;;;;;;;;;;;;18.19;51.12;100349.69;5091344;28;19912;-86
2023/05/03 09:05:25;;;;;;;;;;;;;;;18.17;50.81;100344.41;5089715;28;19920;-84
2023/05/03 09:08:07;;;;;;;;;;;;;;;18.12;53.46;100353.47;5083910;28;19923;-86
2023/05/03 09:10:36;;;;;;;;;;;;;;;18.31;51.04;100345.69;5072510;28;20277;-88
2023/05/03 09:13:01;;;;;;;;;;;;;;;18.40;51.98;100351.56;5072074;28;19960;-90
2023/05/03 09:15:29;;;;;;;;;;;;;;;18.60;52.58;100363.31;5081652;28;19955;-88
2023/05/03 09:18:17;;;;;;;;;;;;;;;18.89;52.59;100353.31;5085475;28;20385;-88
2023/05/03 09:20:52;;;;;;;;;;;;;;;19.53;51.63;100349.00;5082704;28;20019;-87
2023/05/03 09:23:30;;;;;;;;;;;;;;;19.52;49.82;100342.75;5090304;28;19915;-88
2023/05/03 09:25:57;;;;;;;;;;;;;;;19.94;49.75;100328.53;5099845;28;20007;-90
2023/05/03 09:28:22;;;;;;;;;;;;;;;19.24;48.33;100330.53;5099782;28;19959;-88
2023/05/03 09:30:48;;;;;;;;;;;;;;;18.93;48.48;100330.91;5104471;28;19957;-89
2023/05/03 09:33:20;;;;;;;;;;;;;;;18.88;50.58;100324.88;5120784;28;20034;-94
2023/05/03 09:35:56;;;;;;;;;;;;;;;18.95;49.78;100335.28;5107467;28;19911;-91
2023/05/03 09:38:25;;;;;;;;;;;;;;;19.04;49.67;100328.66;5104168;28;20179;-88
2023/05/03 09:40:51;;;;;;;;;;;;;;;19.01;50.09;100327.94;5093557;28;19988;-90
2023/05/03 09:43:16;;;;;;;;;;;;;;;18.59;51.51;100321.50;5106167;28;20444;-87
2023/05/03 09:45:42;;;;;;;;;;;;;;;18.11;51.86;100320.59;5109538;28;19919;-88
2023/05/03 09:48:07;;;;;;;;;;;;;;;18.10;53.28;100315.31;5094834;28;20021;-86
2023/05/03 09:50:33;;;;;;;;;;;;;;;18.17;52.23;100319.50;5090200;28;20619;-86
2023/05/03 09:53:00;;;;;;;;;;;;;;;18.64;50.29;100321.31;5090362;28;20432;-86
2023/05/03 09:55:26;;;;;;;;;;;;;;;18.81;50.06;100318.00;5072213;28;20419;-86
2023/05/03 09:57:53;;;;;;;;;;;;;;;18.41;52.64;100321.28;5072202;28;20392;-85
2023/05/03 10:00:19;;;;;;;;;;;;;;;18.88;51.47;100327.56;5090264;28;19912;-85
2023/05/03 10:02:46;;;;;;;;;;;;;;;18.02;51.37;100308.44;5090380;28;19912;-86
2023/05/03 10:05:12;;;;;;;;;;;;;;;18.60;52.63;100331.25;5090553;28;19912;-85
2023/05/03 10:07:39;;;;;;;;;;;;;;;18.68;52.14;100350.53;5090578;28;19926;-86
2023/05/03 10:10:06;;;;;;;;;;;;;;;18.96;52.13;100360.19;5090086;28;19916;-84
2023/05/03 10:12:34;;;;;;;;;;;;;;;19.26;50.60;100352.75;5090252;28;19938;-84
2023/05/03 10:15:03;;;;;;;;;;;;;;;19.16;52.61;100339.81;5089422;28;20381;-85
2023/05/03 10:17:32;;;;;;;;;;;;;;;19.17;52.19;100338.88;5090186;28;19950;-84
2023/05/03 10:20:16;;;;;;;;;;;;;;;19.48;51.15;100336.69;5089922;28;19988;-84
2023/05/03 10:23:00;;;;;;;;;;;;;;;19.12;51.84;100323.00;5089309;28;19919;-84
2023/05/03 10:25:26;;;;;;;;;;;;;;;19.14;52.00;100324.69;5089746;28;20408;-84
2023/05/03 10:27:51;;;;;;;;;;;;;;;19.05;51.65;100322.41;5089505;28;19908;-84
2023/05/03 10:30:29;;;;;;;;;;;;;;;18.93;51.31;100315.72;5089613;28;19912;-85
2023/05/03 10:32:55;;;;;;;;;;;;;;;19.28;51.05;100316.09;5089647;28;19929;-84
2023/05/03 10:35:24;;;;;;;;;;;;;;;18.79;52.18;100312.69;5071514;28;19912;-84
2023/05/03 10:37:50;;;;;;;;;;;;;;;18.45;53.00;100322.00;5089594;28;19912;-84
2023/05/03 10:40:16;;;;;;;;;;;;;;;18.73;53.82;100326.31;5089013;28;19919;-88
2023/05/03 10:42:43;;;;;;;;;;;;;;;18.91;54.41;100322.09;5072277;28;19912;-85
2023/05/03 10:45:10;;;;;;;;;;;;;;;19.06;54.19;100312.56;5090716;28;19923;-83
2023/05/03 10:47:36;;;;;;;;;;;;;;;18.83;53.46;100303.66;5107373;28;19920;-83
2023/05/03 10:50:10;;;;;;;;;;;;;;;18.78;54.50;100303.81;5110625;28;19912;-86
2023/05/03 10:52:38;;;;;;;;;;;;;;;19.08;52.94;100306.22;5092097;28;19927;-87
2023/05/03 10:55:14;;;;;;;;;;;;;;;18.93;52.93;100318.41;5092625;28;19957;-89
2023/05/03 10:57:41;;;;;;;;;;;;;;;19.11;52.39;100300.75;5092658;28;20015;-85
2023/05/03 11:00:27;;;;;;;;;;;;;;;18.85;52.70;100299.13;5092504;28;19923;-84
2023/05/03 11:03:02;;;;;;;;;;;;;;;18.61;54.31;100303.59;5092928;28;19911;-84
2023/05/03 11:05:29;;;;;;;;;;;;;;;18.31;54.74;100305.66;5091935;28;19911;-83
2023/05/03 11:08:08;;;;;;;;;;;;;;;18.22;55.32;100309.53;5110669;28;19907;-84
2023/05/03 11:10:33;;;;;;;;;;;;;;;17.98;56.99;100311.28;5110624;28;20048;-84
2023/05/03 11:12:58;;;;;;;;;;;;;;;18.10;58.41;100307.28;5110753;28;20002;-84
2023/05/03 11:15:24;;;;;;;;;;;;;;;17.90;59.23;100308.88;5110115;28;20002;-83
2023/05/03 11:17:49;;;;;;;;;;;;;;;17.96;60.57;100300.66;5110493;28;20297;-84
2023/05/03 11:20:15;;;;;;;;;;;;;;;17.84;60.08;100299.28;5110342;28;19911;-82
2023/05/03 11:22:42;;;;;;;;;;;;;;;17.47;59.87;100299.66;5110153;28;20445;-85
2023/05/03 11:25:09;;;;;;;;;;;;;;;17.00;60.16;100293.19;5092059;28;19912;-84
2023/05/03 11:27:34;;;;;;;;;;;;;;;16.69;59.91;100290.59;5091801;28;19907;-84
2023/05/03 11:30:00;;;;;;;;;;;;;;;16.52;61.59;100285.78;5110566;28;20309;-84
2023/05/03 11:32:26;;;;;;;;;;;;;;;16.47;61.22;100279.72;5109153;28;19916;-84
2023/05/03 11:34:51;;;;;;;;;;;;;;;16.60;61.72;100282.88;5114190;28;19912;-84
2023/05/03 11:37:16;;;;;;;;;;;;;;;16.32;64.15;100278.38;5113883;28;20323;-84
2023/05/03 11:39:42;;;;;;;;;;;;;;;16.33;67.92;100257.94;5095680;28;19985;-85
2023/05/03 11:42:07;;;;;;;;;;;;;;;16.28;66.33;100248.31;5095083;28;20258;-85
2023/05/03 11:44:33;;;;;;;;;;;;;;;16.47;68.01;100243.31;5113879;28;20465;-83
2023/05/03 11:46:58;;;;;;;;;;;;;;;16.26;68.62;100247.47;5113274;28;19949;-84
2023/05/03 11:49:24;;;;;;;;;;;;;;;16.38;69.86;100248.03;5113731;28;19943;-84
2023/05/03 11:51:50;;;;;;;;;;;;;;;16.46;70.20;100251.34;5113598;28;19912;-89
2023/05/03 11:54:15;;;;;;;;;;;;;;;16.32;69.91;100251.75;5113665;28;19908;-87
2023/05/03 11:56:41;;;;;;;;;;;;;;;16.80;68.44;100236.97;5114013;28;20342;-87
2023/05/03 11:59:06;;;;;;;;;;;;;;;16.82;68.64;100233.34;5113847;28;19912;-88
2023/05/03 12:01:32;;;;;;;;;;;;;;;17.07;68.06;100232.56;5095141;28;20474;-88
2023/05/03 12:03:58;;;;;;;;;;;;;;;17.23;68.03;100237.38;5094620;28;19919;-89
2023/05/03 12:06:26;;;;;;;;;;;;;;;17.10;69.58;100224.47;5095087;28;19911;-90
2023/05/03 12:08:51;;;;;;;;;;;;;;;17.33;66.68;100237.03;5094666;28;19918;-86
2023/05/03 12:11:17;;;;;;;;;;;;;;;17.15;68.23;100240.31;5093755;28;19912;-87
2023/05/03 12:13:42;;;;;;;;;;;;;;;17.33;68.40;100238.78;5093221;28;19987;-86
2023/05/03 12:16:08;;;;;;;;;;;;;;;17.05;68.08;100241.53;5094014;28;20257;-86
2023/05/03 12:18:51;;;;;;;;;;;;;;;16.75;65.85;100244.25;5112516;28;20430;-86
2023/05/03 12:21:18;;;;;;;;;;;;;;;16.83;65.29;100247.53;5112681;28;19911;-85
2023/05/03 12:23:43;;;;;;;;;;;;;;;16.78;64.45;100233.50;5112311;28;19915;-88
2023/05/03 12:26:09;;;;;;;;;;;;;;;16.95;64.02;100227.66;5094097;28;19969;-88
2023/05/03 12:28:34;;;;;;;;;;;;;;;17.14;65.30;100228.75;5112032;28;20293;-87
2023/05/03 12:31:00;;;;;;;;;;;;;;;17.15;63.25;100225.19;5111084;28;19919;-88
2023/05/03 12:33:25;;;;;;;;;;;;;;;17.17;63.05;100223.31;5112182;28;20714;-86